ADDS METAR Data INFO
IDs: Format: Raw Decoded Include TAF

Data at: 2304 UTC 15 Jul 2018

METAR for:KBKV (Brooksville/Hernando, FL, US)
Text:KBKV 152253Z 00000KT 10SM CLR 28/22 A3002 RMK AO2 SLP164 T02830222
Temperature: 28.3°C ( 83°F)
Dewpoint: 22.2°C ( 72°F) [RH = 70%]
Pressure (altimeter):30.02 inches Hg (1016.7 mb) [Sea level pressure: 1016.4 mb]
Winds:calm
Visibility:10 or more sm (16+ km)
Ceiling:at least 12,000 feet AGL
Clouds:sky clear below 12,000 feet AGL